Aerbrava en el facebook Aerbrava en el twitter Google+ Instagram Aerbrava en el youtube tumblr flikr pinterest
aerbrava en catal&agà Aerbrava in English
Escuela de Pilotos
Teléfono 972234126 972 23 41 26
 
aerbrava en català Aerbrava in English
Aerbrava - Meteorología

Información meteorológica aeronáutica

 

En este apartado aparece la información meteorológica aeronáutica que es utilizada en las prácticas de los alumnos de la Escuela de Pilotos de nuestro centro durante su formación, por lo que puede no ser actual y se debería utilizar por su propia cuenta y riesgo. AERBRAVA no se hace responsable de su uso.

 

TIEMPO ACTUAL

Satélite Meteorológico

sat24.com

Servei Meteorològic de Catalunya

 

LEGE 191700Z 13005KT 080V170 9999 FEW040 21/11 Q1024
LEGE 191630Z 14008KT 100V170 9999 FEW040 21/10 Q1024
LEGE 191600Z 13009KT 100V160 9999 FEW040 22/10 Q1024
LEGE 191530Z 14005KT 070V230 9999 FEW035 23/10 Q1024
LEGE 191500Z 16007KT 110V210 9999 FEW035 23/11 Q1024
LEGE 191430Z 16004KT 9999 FEW035 23/12 Q1024
LEGE 191400Z 08006KT 360V130 9999 FEW030 23/12 Q1025
LEGE 191330Z 07005KT 020V130 9999 FEW030 23/11 Q1025
TAF LEGE 191100Z 1912/2012 07009KT 9999 FEW050 TX23/1912Z TN11/2006Z
TEMPO 1912/1916 06009G19KT
BECMG 1920/1922 34005KT

Aviation Weather

 
Aerbrava en el facebook Aerbrava en el twitter Google+ Instagram Aerbrava en el youtube tumblr flikr pinterest

¡CSS Vàlid!